Time;durP1;ratioP1;P1;durP2;ratioP2;P2;SDS_P1;SDS_P2;PMS_P1;PMS_P2;Temp;Humidity;BMP_temperature;BMP_pressure;BME280_temperature;BME280_humidity;BME280_pressure;Samples;Min_cycle;Max_cycle;Signal;HPM_P1;HPM_P2
2022/01/03 00:00:53;;;;;;;4.43;2.13;;;12.90;53.80;;;;;;5020352;28;20215;-80
2022/01/03 00:03:21;;;;;;;2.50;1.88;;;12.90;53.70;;;;;;5020987;28;20335;-79
2022/01/03 00:05:48;;;;;;;2.45;1.98;;;12.80;54.00;;;;;;5022645;28;20271;-79
2022/01/03 00:08:15;;;;;;;4.70;1.85;;;12.80;54.10;;;;;;5023308;28;20337;-79
2022/01/03 00:10:42;;;;;;;3.75;1.70;;;12.80;54.30;;;;;;5023085;28;20574;-81
2022/01/03 00:13:09;;;;;;;3.00;1.85;;;12.80;54.30;;;;;;5022430;28;20263;-81
2022/01/03 00:15:36;;;;;;;2.80;1.70;;;12.70;54.50;;;;;;5023235;28;20259;-80
2022/01/03 00:18:04;;;;;;;4.20;2.03;;;12.60;54.70;;;;;;5025240;28;20223;-79
2022/01/03 00:20:32;;;;;;;3.35;1.80;;;12.60;55.10;;;;;;5028988;28;20239;-77
2022/01/03 00:23:03;;;;;;;3.30;2.15;;;12.50;55.20;;;;;;5037272;28;20235;-79
2022/01/03 00:25:31;;;;;;;5.38;2.10;;;12.50;55.20;;;;;;5031857;28;20200;-80
2022/01/03 00:28:08;;;;;;;3.67;2.00;;;12.50;55.00;;;;;;5022869;28;20204;-80
2022/01/03 00:30:37;;;;;;;2.85;1.85;;;12.50;55.10;;;;;;5023190;28;20249;-80
2022/01/03 00:33:07;;;;;;;6.00;1.70;;;12.50;55.30;;;;;;5021705;28;20310;-80
2022/01/03 00:35:40;;;;;;;7.35;2.00;;;12.50;55.40;;;;;;5023034;28;20237;-80
2022/01/03 00:38:09;;;;;;;5.43;1.80;;;12.50;55.10;;;;;;5022048;28;20295;-80
2022/01/03 00:40:36;;;;;;;4.90;1.60;;;12.60;54.70;;;;;;5022470;28;20208;-80
2022/01/03 00:43:04;;;;;;;3.25;1.35;;;12.70;53.80;;;;;;5023052;28;20207;-80
2022/01/03 00:45:31;;;;;;;3.55;1.10;;;12.90;52.90;;;;;;5022870;28;20231;-80
2022/01/03 00:47:59;;;;;;;5.43;1.58;;;13.00;52.00;;;;;;5026710;28;20246;-80
2022/01/03 00:50:30;;;;;;;3.58;1.63;;;13.10;52.10;;;;;;5035011;28;20208;-80
2022/01/03 00:52:58;;;;;;;3.30;1.27;;;13.20;52.20;;;;;;5030950;28;20238;-78
2022/01/03 00:55:27;;;;;;;3.50;1.10;;;13.20;52.20;;;;;;5022780;28;20228;-79
2022/01/03 00:58:03;;;;;;;3.22;1.27;;;13.20;52.20;;;;;;5023618;28;20207;-80
2022/01/03 01:00:32;;;;;;;3.55;1.40;;;13.30;51.90;;;;;;5025222;28;20271;-79
2022/01/03 01:03:04;;;;;;;1.80;0.85;;;13.30;52.30;;;;;;5028144;28;20354;-80
2022/01/03 01:05:32;;;;;;;2.33;1.00;;;13.30;52.50;;;;;;5033364;28;20222;-80
2022/01/03 01:08:00;;;;;;;3.63;1.60;;;13.30;51.80;;;;;;5030637;28;20215;-80
2022/01/03 01:10:29;;;;;;;3.85;1.40;;;13.30;52.30;;;;;;5022542;28;20216;-81
2022/01/03 01:12:57;;;;;;;5.90;1.30;;;13.30;52.30;;;;;;5024437;28;20299;-80
2022/01/03 01:15:25;;;;;;;7.10;1.60;;;13.30;52.30;;;;;;5034282;28;20219;-80
2022/01/03 01:17:53;;;;;;;2.95;1.15;;;13.30;52.30;;;;;;5027760;28;20200;-80
2022/01/03 01:20:20;;;;;;;2.38;1.15;;;13.30;52.30;;;;;;5031421;28;20226;-80
2022/01/03 01:22:48;;;;;;;4.20;1.40;;;13.30;51.80;;;;;;5035510;28;20191;-82
2022/01/03 01:27:45;;;;;;;2.47;1.17;;;13.30;52.40;;;;;;5031916;28;20670;-79
2022/01/03 01:28:13;;;;;;;6.20;1.40;;;13.30;51.20;;;;;;5025800;28;20204;-78
2022/01/03 01:30:40;;;;;;;2.42;1.40;;;13.30;51.00;;;;;;5028552;28;20227;-81
2022/01/03 01:33:09;;;;;;;2.75;1.40;;;13.40;51.20;;;;;;5026141;28;20243;-80
2022/01/03 01:35:41;;;;;;;6.55;1.58;;;13.40;51.70;;;;;;5025417;28;20270;-80
2022/01/03 01:38:09;;;;;;;4.40;1.73;;;13.30;51.50;;;;;;5024916;28;20208;-80
2022/01/03 01:40:44;;;;;;;7.22;1.50;;;13.30;51.90;;;;;;5024247;28;20207;-80
2022/01/03 01:43:13;;;;;;;5.82;1.30;;;13.30;51.20;;;;;;5025544;28;20241;-79
2022/01/03 01:45:42;;;;;;;6.13;1.23;;;13.30;51.40;;;;;;5024588;28;20208;-80
2022/01/03 01:48:12;;;;;;;4.20;1.83;;;13.30;51.60;;;;;;5031550;28;20217;-82
2022/01/03 01:50:41;;;;;;;6.63;1.40;;;13.30;51.60;;;;;;5027684;28;20222;-80
2022/01/03 01:53:09;;;;;;;3.90;1.35;;;13.30;52.20;;;;;;5026807;28;20250;-80
2022/01/03 01:55:42;;;;;;;4.50;1.20;;;13.20;52.20;;;;;;5025581;28;20231;-78
2022/01/03 01:58:21;;;;;;;4.68;1.60;;;13.20;52.20;;;;;;5018193;28;20227;-79
2022/01/03 02:00:56;;;;;;;6.95;1.73;;;13.20;52.20;;;;;;5019030;28;20596;-80
2022/01/03 02:03:32;;;;;;;6.28;1.55;;;13.20;52.20;;;;;;5021582;28;20267;-79
2022/01/03 02:06:16;;;;;;;4.80;1.65;;;13.20;52.20;;;;;;5028154;28;20188;-80
2022/01/03 02:08:52;;;;;;;4.10;1.55;;;13.20;52.20;;;;;;5031711;28;20215;-80
2022/01/03 02:11:38;;;;;;;2.15;1.95;;;13.20;52.20;;;;;;5031370;28;20204;-79
2022/01/03 02:14:05;;;;;;;5.80;1.70;;;13.20;52.20;;;;;;5031312;28;20266;-82
2022/01/03 02:16:33;;;;;;;4.32;1.40;;;13.20;52.20;;;;;;5028460;28;20277;-79
2022/01/03 02:19:00;;;;;;;3.83;1.20;;;13.20;52.20;;;;;;5023839;28;20227;-79
2022/01/03 02:21:28;;;;;;;4.65;1.40;;;13.20;52.20;;;;;;5025598;28;20233;-78
2022/01/03 02:23:55;;;;;;;8.18;1.40;;;13.20;52.20;;;;;;5022482;28;20231;-79
2022/01/03 02:26:21;;;;;;;4.22;1.55;;;13.10;52.10;;;;;;5027881;28;20263;-81
2022/01/03 02:28:48;;;;;;;6.57;1.60;;;13.10;52.10;;;;;;5018065;28;20298;-79
2022/01/03 02:31:17;;;;;;;4.68;1.35;;;13.10;52.10;;;;;;5016590;28;20659;-80
2022/01/03 02:33:44;;;;;;;1.48;1.17;;;13.00;52.00;;;;;;5015735;28;20239;-82
2022/01/03 02:36:11;;;;;;;4.97;1.70;;;13.10;52.10;;;;;;5016604;28;20570;-80
2022/01/03 02:38:40;;;;;;;4.85;1.40;;;13.10;52.10;;;;;;5015726;28;20227;-81
2022/01/03 02:41:07;;;;;;;5.20;1.73;;;13.00;52.00;;;;;;5015758;28;20211;-81
2022/01/03 02:43:33;;;;;;;6.53;1.85;;;13.00;52.00;;;;;;5015682;28;20318;-80
2022/01/03 02:46:00;;;;;;;5.55;1.60;;;13.00;52.00;;;;;;5016361;28;20212;-79
2022/01/03 02:48:27;;;;;;;5.05;1.40;;;13.00;52.00;;;;;;5015777;28;20300;-80
2022/01/03 02:50:55;;;;;;;5.93;1.30;;;13.00;52.00;;;;;;5015719;28;20215;-80
2022/01/03 02:53:21;;;;;;;6.38;1.80;;;13.00;52.10;;;;;;5016053;28;20726;-80
2022/01/03 02:55:50;;;;;;;3.25;1.67;;;12.90;51.90;;;;;;5015189;28;20230;-80
2022/01/03 02:58:17;;;;;;;3.90;1.38;;;12.90;51.90;;;;;;5015140;28;20230;-80
2022/01/03 03:00:48;;;;;;;5.10;1.50;;;12.90;51.90;;;;;;5016398;28;20213;-79
2022/01/03 03:03:15;;;;;;;6.60;1.67;;;12.90;51.90;;;;;;5020792;28;20250;-80
2022/01/03 03:05:43;;;;;;;5.97;1.80;;;12.80;52.00;;;;;;5020855;28;20238;-81
2022/01/03 03:08:13;;;;;;;5.13;1.98;;;12.80;52.30;;;;;;5020325;28;20340;-79
2022/01/03 03:10:40;;;;;;;6.22;1.63;;;12.80;52.40;;;;;;5015779;28;20216;-80
2022/01/03 03:13:09;;;;;;;4.13;1.77;;;12.80;52.70;;;;;;5015590;28;20622;-80
2022/01/03 03:15:36;;;;;;;4.80;1.88;;;12.80;52.70;;;;;;5016697;28;20295;-78
2022/01/03 03:18:03;;;;;;;6.97;1.75;;;12.80;52.80;;;;;;5014163;28;20588;-79
2022/01/03 03:20:33;;;;;;;3.92;1.98;;;12.80;53.40;;;;;;5015078;28;20222;-80
2022/01/03 03:23:01;;;;;;;4.32;1.65;;;12.80;53.30;;;;;;5016201;28;20204;-77
2022/01/03 03:25:30;;;;;;;5.38;1.50;;;12.80;52.80;;;;;;5017600;28;20211;-79
2022/01/03 03:28:00;;;;;;;3.95;1.38;;;12.80;52.90;;;;;;5014141;28;20273;-79
2022/01/03 03:30:31;;;;;;;4.40;1.58;;;12.80;53.00;;;;;;5019013;28;20212;-78
2022/01/03 03:33:02;;;;;;;3.28;1.20;;;12.80;52.90;;;;;;5018398;28;20231;-79
2022/01/03 03:35:29;;;;;;;5.90;1.70;;;12.80;53.10;;;;;;5021978;28;20226;-79
2022/01/03 03:37:56;;;;;;;3.15;1.23;;;12.80;52.90;;;;;;5026950;28;20207;-81
2022/01/03 03:40:23;;;;;;;7.28;1.40;;;12.70;52.80;;;;;;5020556;28;20216;-80
2022/01/03 03:42:50;;;;;;;11.05;1.73;;;12.70;52.80;;;;;;5019787;28;20280;-79
2022/01/03 03:45:20;;;;;;;4.22;1.52;;;12.70;53.00;;;;;;5021695;28;20291;-80
2022/01/03 03:47:49;;;;;;;6.10;2.15;;;12.70;52.90;;;;;;5022069;28;20254;-79
2022/01/03 03:50:16;;;;;;;7.97;1.70;;;12.70;52.80;;;;;;5020478;28;20542;-80
2022/01/03 03:52:43;;;;;;;13.20;1.95;;;12.70;52.40;;;;;;5021246;28;20230;-80
2022/01/03 03:55:11;;;;;;;8.80;1.58;;;12.70;52.30;;;;;;5026037;28;20299;-80
2022/01/03 03:57:38;;;;;;;5.57;1.75;;;12.60;52.50;;;;;;5028044;28;20224;-82
2022/01/03 04:00:08;;;;;;;5.60;1.90;;;12.60;52.50;;;;;;5028387;28;20270;-78
2022/01/03 04:02:35;;;;;;;7.70;1.65;;;12.60;52.20;;;;;;5031235;28;20212;-80
2022/01/03 04:05:03;;;;;;;4.63;1.40;;;12.50;52.10;;;;;;5034266;28;20238;-79
2022/01/03 04:07:30;;;;;;;8.10;2.13;;;12.50;52.40;;;;;;5033878;28;20200;-82
2022/01/03 04:09:57;;;;;;;9.10;1.70;;;12.50;52.70;;;;;;5038159;28;20207;-82
2022/01/03 04:12:24;;;;;;;8.73;2.10;;;12.50;53.20;;;;;;5036255;28;20263;-81
2022/01/03 04:14:51;;;;;;;5.55;1.65;;;12.50;53.40;;;;;;5037771;28;20656;-81
2022/01/03 04:17:18;;;;;;;8.77;2.45;;;12.40;53.50;;;;;;5038453;28;20254;-80
2022/01/03 04:19:45;;;;;;;5.57;1.40;;;12.40;53.70;;;;;;5035343;28;20227;-79
2022/01/03 04:22:13;;;;;;;1.65;0.90;;;12.30;53.90;;;;;;5036550;28;20215;-81
2022/01/03 04:24:40;;;;;;;4.55;1.00;;;12.30;54.00;;;;;;5036127;28;20231;-81
2022/01/03 04:27:07;;;;;;;4.43;1.30;;;12.20;53.90;;;;;;5034375;28;20204;-80
2022/01/03 04:29:34;;;;;;;2.70;1.10;;;12.20;54.10;;;;;;5030942;28;20299;-81
2022/01/03 04:32:01;;;;;;;7.63;1.60;;;12.10;55.20;;;;;;5038186;28;20208;-82
2022/01/03 04:34:28;;;;;;;4.53;1.15;;;12.00;56.30;;;;;;5036496;28;20235;-84
2022/01/03 04:36:55;;;;;;;4.15;0.95;;;11.80;58.10;;;;;;5032774;28;20291;-79
2022/01/03 04:39:23;;;;;;;4.05;0.95;;;11.70;60.20;;;;;;5037608;28;20221;-81
2022/01/03 04:41:50;;;;;;;3.80;1.15;;;11.60;60.10;;;;;;5036771;28;20200;-81
2022/01/03 04:44:17;;;;;;;6.25;1.15;;;11.60;61.70;;;;;;5038696;28;20216;-81
2022/01/03 04:46:44;;;;;;;2.25;1.00;;;11.50;62.90;;;;;;5037796;28;20196;-79
2022/01/03 04:49:11;;;;;;;3.42;1.35;;;11.40;64.10;;;;;;5037386;28;20196;-80
2022/01/03 04:51:39;;;;;;;4.10;1.40;;;11.40;64.60;;;;;;5027501;28;20227;-80
2022/01/03 04:54:07;;;;;;;4.22;1.25;;;11.30;65.70;;;;;;5023447;28;20250;-81
2022/01/03 04:56:35;;;;;;;4.75;1.20;;;11.30;66.70;;;;;;5025430;28;20231;-81
2022/01/03 04:59:03;;;;;;;3.80;1.10;;;11.20;67.90;;;;;;5027953;28;20238;-79
2022/01/03 05:01:30;;;;;;;3.65;1.10;;;11.20;68.70;;;;;;5037913;28;20214;-80
2022/01/03 05:03:58;;;;;;;3.35;1.00;;;11.20;68.70;;;;;;5038470;28;20214;-83
2022/01/03 05:06:25;;;;;;;5.68;1.40;;;11.10;68.60;;;;;;5034734;28;20294;-80
2022/01/03 05:08:52;;;;;;;5.20;1.55;;;11.10;68.60;;;;;;5036966;28;20279;-80
2022/01/03 05:11:19;;;;;;;2.58;1.00;;;11.10;69.50;;;;;;5033103;28;20230;-80
2022/01/03 05:13:47;;;;;;;3.22;1.08;;;11.10;69.50;;;;;;5027042;28;20231;-79
2022/01/03 05:16:16;;;;;;;6.95;1.83;;;11.10;69.60;;;;;;5021371;28;20322;-80
2022/01/03 05:18:43;;;;;;;7.65;1.65;;;11.20;69.20;;;;;;5024524;28;20262;-80
2022/01/03 05:21:10;;;;;;;6.00;1.80;;;11.20;69.20;;;;;;5038012;28;20275;-85
2022/01/03 05:23:37;;;;;;;10.07;1.50;;;11.20;68.70;;;;;;5038242;28;20212;-86
2022/01/03 05:26:05;;;;;;;5.45;1.70;;;11.10;68.90;;;;;;5038456;28;20192;-85
2022/01/03 05:28:32;;;;;;;7.85;1.80;;;11.10;68.60;;;;;;5038234;28;20184;-86
2022/01/03 05:31:01;;;;;;;6.32;1.88;;;11.10;68.60;;;;;;5038698;28;20191;-84
2022/01/03 05:33:28;;;;;;;7.28;2.22;;;11.10;67.50;;;;;;5038310;28;20239;-83
2022/01/03 05:35:55;;;;;;;4.95;1.38;;;11.20;67.10;;;;;;5033995;28;20196;-79
2022/01/03 05:38:21;;;;;;;10.45;2.03;;;11.20;66.60;;;;;;5020459;28;20230;-80
2022/01/03 05:40:48;;;;;;;6.57;2.83;;;11.20;66.30;;;;;;5019299;28;20212;-80
2022/01/03 05:43:15;;;;;;;5.07;1.83;;;11.20;66.60;;;;;;5019211;28;20255;-80
2022/01/03 05:45:42;;;;;;;16.67;1.83;;;11.20;66.80;;;;;;5020322;28;20207;-80
2022/01/03 05:48:10;;;;;;;7.35;1.63;;;11.30;66.90;;;;;;5019899;28;20204;-80
2022/01/03 05:50:37;;;;;;;7.78;2.10;;;11.30;67.10;;;;;;5020020;28;20340;-80
2022/01/03 05:53:04;;;;;;;14.80;2.78;;;11.30;67.10;;;;;;5021222;28;20272;-81
2022/01/03 05:55:31;;;;;;;12.07;2.85;;;11.30;67.40;;;;;;5021077;28;20235;-80
2022/01/03 05:57:58;;;;;;;5.55;1.90;;;11.30;67.30;;;;;;5021311;28;20243;-81
2022/01/03 06:00:26;;;;;;;6.90;2.00;;;11.30;67.80;;;;;;5022865;28;20683;-81
2022/01/03 06:02:56;;;;;;;7.30;1.70;;;11.30;68.00;;;;;;5020007;28;20215;-80
2022/01/03 06:08:13;;;;;;;5.35;2.00;;;11.20;68.70;;;;;;5017625;28;20195;-80
2022/01/03 06:10:41;;;;;;;4.90;1.50;;;11.20;68.70;;;;;;5020368;28;20204;-79
2022/01/03 06:13:08;;;;;;;9.48;2.50;;;11.10;68.60;;;;;;5017987;28;20223;-79
2022/01/03 06:15:38;;;;;;;5.63;1.92;;;11.20;68.70;;;;;;5019593;28;20605;-82
2022/01/03 06:18:10;;;;;;;6.30;1.92;;;11.20;68.70;;;;;;5020301;28;20377;-80
2022/01/03 06:20:39;;;;;;;6.63;1.70;;;11.20;68.70;;;;;;5020083;28;20211;-81
2022/01/03 06:23:07;;;;;;;6.88;1.80;;;11.20;68.70;;;;;;5019098;28;20293;-81
2022/01/03 06:25:34;;;;;;;9.15;1.50;;;11.30;68.50;;;;;;5020086;28;20211;-80
2022/01/03 06:28:01;;;;;;;8.10;2.30;;;11.30;67.30;;;;;;5019653;28;20208;-80
2022/01/03 06:30:28;;;;;;;7.05;1.75;;;11.40;66.80;;;;;;5015664;28;20219;-80
2022/01/03 06:32:54;;;;;;;6.75;1.30;;;11.40;67.00;;;;;;5012234;28;20239;-82
2022/01/03 06:35:21;;;;;;;6.68;1.63;;;11.40;66.80;;;;;;5016448;28;20200;-80
2022/01/03 06:37:50;;;;;;;3.22;1.50;;;11.40;66.60;;;;;;5018664;28;20263;-79
2022/01/03 06:40:17;;;;;;;5.18;1.48;;;11.40;65.90;;;;;;5017335;28;20208;-80
2022/01/03 06:42:44;;;;;;;5.00;1.58;;;11.40;65.60;;;;;;5016651;28;20215;-80
2022/01/03 06:45:11;;;;;;;7.63;1.50;;;11.40;66.20;;;;;;5018331;28;20211;-80
2022/01/03 06:47:38;;;;;;;4.53;1.40;;;11.40;65.50;;;;;;5025208;28;20211;-81
2022/01/03 06:50:06;;;;;;;8.65;2.30;;;11.40;65.50;;;;;;5022061;28;20208;-79
2022/01/03 06:52:32;;;;;;;7.82;2.05;;;11.40;65.20;;;;;;5038673;28;20293;-81
2022/01/03 06:55:01;;;;;;;11.45;2.05;;;11.40;65.00;;;;;;5037676;28;20696;-79
2022/01/03 06:57:28;;;;;;;6.18;1.83;;;11.50;64.60;;;;;;5016599;28;20299;-79
2022/01/03 06:59:54;;;;;;;5.05;1.75;;;11.50;64.50;;;;;;5015536;28;20662;-79
2022/01/03 07:02:22;;;;;;;8.00;1.95;;;11.50;65.20;;;;;;4997844;28;20243;-81
2022/01/03 07:04:49;;;;;;;7.65;1.92;;;11.50;64.50;;;;;;5000638;28;20323;-79
2022/01/03 07:07:16;;;;;;;4.93;1.63;;;11.50;64.60;;;;;;5009292;28;20207;-79
2022/01/03 07:09:43;;;;;;;9.23;1.75;;;11.40;64.80;;;;;;5019343;28;20295;-78
2022/01/03 07:12:11;;;;;;;7.55;2.08;;;11.40;65.00;;;;;;5030057;28;20663;-80
2022/01/03 07:20:09;;;;;;;8.10;1.92;;;11.40;65.10;;;;;;5009485;28;20194;-81
2022/01/03 07:22:39;;;;;;;7.93;1.85;;;11.40;65.20;;;;;;5016540;28;20231;-80
2022/01/03 07:25:07;;;;;;;5.47;2.05;;;11.40;65.50;;;;;;5014397;28;20219;-80
2022/01/03 07:27:36;;;;;;;6.45;2.40;;;11.40;65.70;;;;;;5015759;28;20246;-79
2022/01/03 07:30:03;;;;;;;5.65;1.88;;;11.40;66.00;;;;;;5011533;28;20273;-81
2022/01/03 07:32:30;;;;;;;10.07;2.85;;;11.40;66.30;;;;;;4993412;28;20652;-78
2022/01/03 07:34:57;;;;;;;6.50;1.70;;;11.30;68.80;;;;;;5000566;28;20228;-80
2022/01/03 07:37:24;;;;;;;5.63;1.50;;;11.10;71.50;;;;;;5017224;28;20263;-82
2022/01/03 07:39:52;;;;;;;4.70;1.50;;;11.00;73.70;;;;;;5021683;28;20291;-80
2022/01/03 07:42:19;;;;;;;7.13;1.60;;;10.90;76.10;;;;;;5020140;28;20686;-78
2022/01/03 07:44:47;;;;;;;5.13;1.90;;;10.80;77.00;;;;;;5009725;28;20228;-80
2022/01/03 07:47:14;;;;;;;5.90;1.98;;;10.80;77.50;;;;;;5009147;28;20212;-80
2022/01/03 07:49:41;;;;;;;7.07;1.45;;;10.80;78.90;;;;;;5008310;28;20240;-81
2022/01/03 07:52:07;;;;;;;8.57;2.38;;;10.80;79.50;;;;;;5012519;28;20212;-79
2022/01/03 07:54:34;;;;;;;7.35;2.05;;;10.80;80.40;;;;;;5007094;28;20361;-80
2022/01/03 07:57:01;;;;;;;5.97;1.70;;;10.80;81.20;;;;;;5025565;28;20267;-80
2022/01/03 07:59:28;;;;;;;12.43;3.55;;;10.90;81.30;;;;;;5033425;28;20223;-79
2022/01/03 08:01:58;;;;;;;7.15;2.92;;;10.90;81.40;;;;;;5030506;28;20234;-81
2022/01/03 08:04:25;;;;;;;6.93;3.50;;;10.90;81.30;;;;;;5025312;28;20235;-79
2022/01/03 08:06:53;;;;;;;5.82;2.25;;;10.90;81.30;;;;;;5019262;28;20234;-79
2022/01/03 08:09:19;;;;;;;8.70;2.10;;;10.90;81.30;;;;;;5014563;28;20613;-78
2022/01/03 08:11:46;;;;;;;6.25;2.33;;;10.80;81.40;;;;;;5002291;28;20271;-77
2022/01/03 08:14:13;;;;;;;28.45;6.40;;;10.80;82.10;;;;;;5008103;28;20275;-76
2022/01/03 08:16:40;;;;;;;6.43;1.80;;;10.80;82.80;;;;;;4996134;28;20204;-78
2022/01/03 08:19:08;;;;;;;8.52;2.50;;;10.80;81.90;;;;;;4998252;28;20224;-77
2022/01/03 08:21:35;;;;;;;21.55;5.13;;;10.80;82.10;;;;;;4997957;28;20212;-77
2022/01/03 08:24:02;;;;;;;21.50;6.00;;;10.90;82.00;;;;;;5008793;28;20266;-78
2022/01/03 08:26:29;;;;;;;8.15;2.22;;;10.90;81.30;;;;;;5008903;28;20277;-79
2022/01/03 08:28:56;;;;;;;5.05;1.92;;;10.90;80.80;;;;;;5000068;28;20232;-77
2022/01/03 08:31:23;;;;;;;7.15;2.55;;;10.90;80.50;;;;;;4998555;28;20280;-77
2022/01/03 08:33:50;;;;;;;10.13;3.03;;;11.00;78.90;;;;;;5003763;28;20298;-78
2022/01/03 08:36:18;;;;;;;12.88;2.90;;;11.00;78.50;;;;;;5000954;28;20676;-77
2022/01/03 08:38:46;;;;;;;7.10;2.65;;;11.00;77.20;;;;;;5003080;28;20253;-78
2022/01/03 08:41:13;;;;;;;22.00;5.90;;;11.00;77.20;;;;;;5018201;28;20303;-77
2022/01/03 08:43:40;;;;;;;4.53;1.75;;;11.10;75.90;;;;;;5012813;28;20252;-78
2022/01/03 08:46:07;;;;;;;8.77;2.00;;;11.20;74.60;;;;;;4996403;28;20239;-77
2022/01/03 08:48:36;;;;;;;12.48;2.30;;;11.20;73.50;;;;;;4996690;28;20568;-78
2022/01/03 08:51:03;;;;;;;7.07;2.05;;;11.20;73.70;;;;;;4996038;28;20215;-78
2022/01/03 08:53:31;;;;;;;10.20;2.35;;;11.30;72.50;;;;;;5003388;28;20223;-79
2022/01/03 08:55:58;;;;;;;7.82;2.13;;;11.30;71.00;;;;;;5018019;28;20645;-80
2022/01/03 08:58:26;;;;;;;16.23;3.33;;;11.30;70.30;;;;;;5017520;28;20323;-80
2022/01/03 09:00:53;;;;;;;11.30;2.60;;;11.40;69.60;;;;;;5019723;28;20673;-77
2022/01/03 09:03:21;;;;;;;7.22;2.60;;;11.50;69.00;;;;;;5012427;28;20231;-79
2022/01/03 09:05:49;;;;;;;13.27;3.10;;;11.50;68.90;;;;;;5000306;28;20212;-78
2022/01/03 09:08:17;;;;;;;9.18;3.30;;;11.50;68.90;;;;;;5002822;28;20211;-78
2022/01/03 09:10:46;;;;;;;9.85;2.78;;;11.50;68.30;;;;;;5018407;28;20214;-78
2022/01/03 09:13:13;;;;;;;10.15;2.65;;;11.60;67.40;;;;;;5013841;28;20247;-78
2022/01/03 09:15:44;;;;;;;9.48;2.25;;;11.60;66.80;;;;;;4996399;28;20212;-78
2022/01/03 09:18:11;;;;;;;5.28;1.65;;;11.70;66.30;;;;;;4997633;28;20294;-78
2022/01/03 09:20:38;;;;;;;4.25;2.05;;;11.70;65.40;;;;;;4999073;28;20218;-78
2022/01/03 09:23:10;;;;;;;5.85;2.40;;;11.70;65.30;;;;;;5001728;28;20638;-82
2022/01/03 09:31:07;;;;;;;9.55;2.75;;;11.70;64.70;;;;;;5009655;28;20267;-79
2022/01/03 09:33:34;;;;;;;6.07;2.30;;;11.80;64.60;;;;;;5015581;28;20258;-79
2022/01/03 09:36:01;;;;;;;9.13;2.53;;;11.80;64.30;;;;;;5030038;28;20825;-79
2022/01/03 09:38:28;;;;;;;5.28;2.15;;;11.90;63.60;;;;;;5024106;28;20307;-81
2022/01/03 09:40:58;;;;;;;6.45;2.25;;;11.90;63.40;;;;;;5023725;28;20563;-83
2022/01/03 09:43:28;;;;;;;7.82;2.28;;;11.90;63.10;;;;;;5024472;28;20730;-78
2022/01/03 09:45:56;;;;;;;4.68;1.98;;;11.90;62.90;;;;;;5035445;28;20188;-77
2022/01/03 09:48:24;;;;;;;5.50;1.80;;;12.00;63.00;;;;;;5031894;28;20255;-80
2022/01/03 09:50:51;;;;;;;5.90;2.47;;;12.00;62.40;;;;;;5029924;28;20209;-76
2022/01/03 09:53:20;;;;;;;9.98;2.28;;;12.00;62.40;;;;;;5036022;28;20264;-77
2022/01/03 09:55:48;;;;;;;5.57;2.00;;;11.90;62.00;;;;;;5030615;28;20204;-81
2022/01/03 09:58:15;;;;;;;4.88;2.20;;;11.90;61.60;;;;;;5025240;28;20220;-80
2022/01/03 10:00:43;;;;;;;6.82;1.73;;;11.90;61.80;;;;;;5024593;28;20234;-81
2022/01/03 10:03:11;;;;;;;7.20;1.67;;;11.90;61.50;;;;;;5019333;28;20546;-82
2022/01/03 10:05:38;;;;;;;8.88;2.00;;;12.00;60.90;;;;;;5027640;28;20215;-82
2022/01/03 10:08:06;;;;;;;5.63;1.90;;;12.00;60.50;;;;;;5034089;28;20192;-81
2022/01/03 10:10:33;;;;;;;8.07;2.72;;;12.00;60.50;;;;;;5024609;28;20211;-77
2022/01/03 10:13:00;;;;;;;9.13;2.30;;;11.90;60.40;;;;;;5010914;28;20401;-81
2022/01/03 10:15:27;;;;;;;11.65;2.25;;;11.90;60.40;;;;;;5036600;28;20417;-80
2022/01/03 10:17:56;;;;;;;5.90;2.10;;;12.00;60.50;;;;;;5048209;28;20223;-80
2022/01/03 10:20:23;;;;;;;6.22;2.42;;;12.00;60.50;;;;;;5036914;28;20238;-79
2022/01/03 10:22:50;;;;;;;6.63;2.10;;;12.10;60.60;;;;;;5030512;28;20207;-79
2022/01/03 10:25:23;;;;;;;5.53;1.83;;;12.10;60.60;;;;;;5033574;28;20427;-78
2022/01/03 10:27:52;;;;;;;8.35;2.42;;;12.10;60.60;;;;;;5031305;28;20210;-79
2022/01/03 10:30:38;;;;;;;4.45;1.83;;;12.10;60.60;;;;;;5011405;28;20264;-81
2022/01/03 10:35:38;;;;;;;4.70;1.75;;;12.20;59.70;;;;;;5057388;22;20271;-78
2022/01/03 10:38:05;;;;;;;8.13;2.22;;;12.30;59.20;;;;;;5020779;28;20253;-78
2022/01/03 10:40:32;;;;;;;6.05;2.10;;;12.40;59.00;;;;;;5017316;28;20267;-77
2022/01/03 10:43:13;;;;;;;8.40;1.75;;;12.30;58.80;;;;;;5018917;28;20206;-77
2022/01/03 10:45:41;;;;;;;4.55;1.50;;;12.40;58.80;;;;;;4997570;28;20263;-76
2022/01/03 10:48:28;;;;;;;6.68;2.50;;;12.40;58.40;;;;;;4996241;28;20208;-77
2022/01/03 10:50:57;;;;;;;7.78;2.63;;;12.40;58.20;;;;;;4997140;28;20283;-76
2022/01/03 10:53:33;;;;;;;4.38;1.80;;;12.50;58.50;;;;;;4996931;28;20247;-77
2022/01/03 10:56:00;;;;;;;4.32;2.15;;;12.60;58.20;;;;;;4998429;28;20673;-79
2022/01/03 10:58:33;;;;;;;4.28;1.45;;;12.60;58.30;;;;;;4998427;28;20264;-77
2022/01/03 11:01:00;;;;;;;7.25;1.33;;;12.60;58.20;;;;;;5000198;28;20854;-77
2022/01/03 11:03:31;;;;;;;9.35;2.05;;;12.70;58.30;;;;;;4996212;28;20244;-77
2022/01/03 11:06:12;;;;;;;7.85;2.03;;;12.70;57.80;;;;;;4997835;28;20224;-77
2022/01/03 11:11:37;;;;;;;4.18;1.70;;;12.80;57.80;;;;;;4995928;28;20200;-78
2022/01/03 11:14:04;;;;;;;5.70;1.40;;;12.70;58.00;;;;;;4997303;28;20323;-77
2022/01/03 11:16:32;;;;;;;6.53;1.50;;;12.70;58.20;;;;;;5001842;28;20264;-78
2022/01/03 11:18:59;;;;;;;4.75;1.80;;;12.80;58.30;;;;;;5002415;28;20239;-79
2022/01/03 11:21:30;;;;;;;11.57;4.18;;;12.70;58.30;;;;;;5003019;28;20204;-78
2022/01/03 11:24:09;;;;;;;3.00;1.45;;;12.90;58.30;;;;;;5004253;28;20232;-78
2022/01/03 11:26:38;;;;;;;4.53;1.58;;;12.80;58.10;;;;;;4999493;28;20228;-78
2022/01/03 11:29:05;;;;;;;4.85;1.40;;;12.90;58.10;;;;;;5002023;28;20235;-79
2022/01/03 11:31:38;;;;;;;5.43;1.90;;;13.00;58.00;;;;;;5000477;28;20266;-77
2022/01/03 11:34:06;;;;;;;7.40;2.05;;;13.00;58.00;;;;;;4998611;28;20243;-78
2022/01/03 11:36:35;;;;;;;6.70;1.60;;;13.00;57.80;;;;;;4997701;28;20235;-77
2022/01/03 11:39:08;;;;;;;6.50;2.00;;;13.10;58.30;;;;;;4999617;28;20248;-78
2022/01/03 11:41:36;;;;;;;7.57;1.80;;;13.00;59.50;;;;;;4998137;28;20680;-77
2022/01/03 11:44:04;;;;;;;10.48;1.83;;;13.00;59.30;;;;;;4999558;28;20243;-78
2022/01/03 11:46:31;;;;;;;4.20;1.83;;;13.00;59.60;;;;;;4999348;28;20268;-78
2022/01/03 11:48:59;;;;;;;3.50;1.70;;;13.00;59.20;;;;;;4997289;28;20286;-79
2022/01/03 11:51:30;;;;;;;4.75;1.65;;;13.00;59.40;;;;;;5000759;28;20209;-77
2022/01/03 11:53:59;;;;;;;5.47;2.08;;;13.00;59.70;;;;;;5001698;28;20236;-76
2022/01/03 11:56:29;;;;;;;4.45;1.60;;;13.00;59.50;;;;;;5002002;28;20244;-77
2022/01/03 11:59:19;;;;;;;3.15;1.50;;;13.10;59.30;;;;;;5011792;28;20224;-77
2022/01/03 12:04:34;;;;;;;4.85;1.80;;;13.20;58.80;;;;;;5007262;28;20235;-77
2022/01/03 12:07:06;;;;;;;10.73;1.85;;;13.20;58.40;;;;;;5006428;28;20293;-77
2022/01/03 12:09:38;;;;;;;4.75;2.30;;;13.20;58.50;;;;;;5005310;28;20204;-77
2022/01/03 12:12:07;;;;;;;4.05;1.60;;;13.20;58.40;;;;;;5010036;28;20220;-78
2022/01/03 12:14:42;;;;;;;6.10;2.00;;;13.20;58.00;;;;;;5011170;28;20263;-78
2022/01/03 12:17:10;;;;;;;6.70;2.47;;;13.20;58.30;;;;;;5003576;28;20664;-77
2022/01/03 12:19:39;;;;;;;4.07;1.58;;;13.20;58.10;;;;;;5004524;28;20323;-77
2022/01/03 12:22:12;;;;;;;6.00;2.03;;;13.20;58.00;;;;;;5000264;28;20295;-76
2022/01/03 12:25:03;;;;;;;4.45;1.40;;;13.10;57.90;;;;;;4999659;28;20232;-80
2022/01/03 12:27:48;;;;;;;4.13;1.95;;;13.10;57.80;;;;;;5001310;28;20216;-78
2022/01/03 12:30:25;;;;;;;5.72;1.52;;;13.10;58.00;;;;;;5001403;28;20275;-78
2022/01/03 12:33:15;;;;;;;3.55;1.80;;;13.20;57.60;;;;;;5002112;28;20220;-77
2022/01/03 12:35:45;;;;;;;5.50;1.87;;;13.20;57.10;;;;;;5010296;28;20212;-78
2022/01/03 12:38:19;;;;;;;4.10;1.65;;;13.30;57.10;;;;;;5016939;28;20435;-78
2022/01/03 12:40:56;;;;;;;5.10;1.70;;;13.30;56.60;;;;;;5017321;28;20195;-78
2022/01/03 12:43:44;;;;;;;5.15;2.00;;;13.20;56.70;;;;;;5012674;28;20228;-78
2022/01/03 12:46:21;;;;;;;9.20;2.20;;;13.20;56.50;;;;;;5001680;28;20248;-78
2022/01/03 12:48:48;;;;;;;5.05;2.08;;;13.20;56.30;;;;;;5004055;28;20219;-78
2022/01/03 12:51:18;;;;;;;4.95;1.88;;;13.10;56.10;;;;;;5007930;28;20263;-79
2022/01/03 12:53:53;;;;;;;3.45;1.80;;;13.00;56.20;;;;;;5011861;28;20665;-77
2022/01/03 12:56:28;;;;;;;3.63;1.60;;;13.00;56.20;;;;;;5003205;28;20192;-79
2022/01/03 12:58:58;;;;;;;4.05;1.73;;;13.00;55.90;;;;;;5012567;28;20216;-78
2022/01/03 13:01:30;;;;;;;8.05;1.83;;;13.00;55.50;;;;;;5002937;28;20209;-78
2022/01/03 13:04:00;;;;;;;4.05;1.40;;;13.00;55.40;;;;;;5000983;28;20296;-78
2022/01/03 13:06:29;;;;;;;4.90;1.58;;;13.00;55.30;;;;;;5005591;28;20212;-78
2022/01/03 13:09:18;;;;;;;2.78;1.58;;;13.10;55.10;;;;;;4998315;28;20201;-78
2022/01/03 13:11:48;;;;;;;5.35;1.60;;;13.10;54.80;;;;;;4992315;28;20232;-79
2022/01/03 13:14:19;;;;;;;5.53;2.05;;;13.20;54.80;;;;;;5006750;28;20234;-78
2022/01/03 13:16:48;;;;;;;9.57;2.22;;;13.20;54.40;;;;;;5006966;28;20213;-80